createdAt,value
2018-02-02T00:00:05.090Z,0
2018-02-02T00:01:14.277Z,0
2018-02-02T00:02:23.188Z,0
2018-02-02T00:03:31.873Z,0
2018-02-02T00:04:40.812Z,0
2018-02-02T00:05:50.015Z,0
2018-02-02T00:06:58.692Z,0
2018-02-02T00:08:07.605Z,0
2018-02-02T00:09:16.527Z,0
2018-02-02T00:10:25.458Z,0
2018-02-02T00:11:34.121Z,0
2018-02-02T00:12:43.318Z,0
2018-02-02T00:13:52.505Z,0
2018-02-02T00:15:01.696Z,0
2018-02-02T00:16:10.608Z,0
2018-02-02T00:17:19.793Z,0
2018-02-02T00:18:28.468Z,0
2018-02-02T00:19:37.638Z,0
2018-02-02T00:20:46.302Z,0
2018-02-02T00:21:55.470Z,0
2018-02-02T00:23:05.199Z,0
2018-02-02T00:24:14.135Z,0
2018-02-02T00:25:23.050Z,0
2018-02-02T00:26:32.098Z,0
2018-02-02T00:27:40.766Z,0
2018-02-02T00:28:50.273Z,0
2018-02-02T00:29:58.953Z,0
2018-02-02T00:31:07.885Z,0
2018-02-02T00:32:16.570Z,0
2018-02-02T00:33:25.487Z,0
2018-02-02T00:34:34.438Z,0
2018-02-02T00:35:43.369Z,0
2018-02-02T00:36:52.268Z,0
2018-02-02T00:38:01.442Z,0
2018-02-02T00:39:10.378Z,0
2018-02-02T00:40:19.304Z,0
2018-02-02T00:41:27.981Z,0
2018-02-02T00:42:36.955Z,0
2018-02-02T00:43:45.942Z,0
2018-02-02T00:44:54.906Z,0
2018-02-02T00:46:03.868Z,0
2018-02-02T00:47:12.827Z,0
2018-02-02T00:48:21.809Z,0
2018-02-02T00:49:31.279Z,0
2018-02-02T00:50:40.544Z,0
2018-02-02T00:51:49.512Z,0
2018-02-02T00:52:58.468Z,0
2018-02-02T00:54:07.696Z,0
2018-02-02T00:55:17.190Z,0
2018-02-02T00:56:26.156Z,0
2018-02-02T00:57:34.837Z,0
2018-02-02T00:58:44.063Z,0
2018-02-02T00:59:53.794Z,0
2018-02-02T01:01:02.486Z,0
2018-02-02T01:02:11.431Z,0
2018-02-02T01:03:20.918Z,0
2018-02-02T01:04:30.122Z,0
2018-02-02T01:05:38.807Z,0
2018-02-02T01:06:48.005Z,0
2018-02-02T01:07:57.227Z,0
2018-02-02T01:09:06.251Z,0
2018-02-02T01:10:15.451Z,0
2018-02-02T01:11:24.398Z,0
2018-02-02T01:12:33.351Z,0
2018-02-02T01:13:42.053Z,0
2018-02-02T01:14:51.032Z,0
2018-02-02T01:16:00.502Z,0
2018-02-02T01:17:09.457Z,0
2018-02-02T01:18:18.949Z,0
2018-02-02T01:19:27.899Z,0
2018-02-02T01:20:37.135Z,0
2018-02-02T01:21:46.094Z,0
2018-02-02T01:22:55.058Z,0
2018-02-02T01:24:04.018Z,0
2018-02-02T01:25:13.254Z,0
2018-02-02T01:26:22.483Z,0
2018-02-02T01:27:31.433Z,0
2018-02-02T01:28:40.136Z,0
2018-02-02T01:29:48.821Z,0
2018-02-02T01:30:57.504Z,0
2018-02-02T01:32:06.213Z,0
2018-02-02T01:33:14.908Z,0
2018-02-02T01:34:24.394Z,0
2018-02-02T01:35:33.138Z,0
2018-02-02T01:36:42.649Z,0
2018-02-02T01:37:51.621Z,0
2018-02-02T01:39:01.112Z,0
2018-02-02T01:40:10.069Z,0
2018-02-02T01:41:19.027Z,0
2018-02-02T01:42:27.727Z,0
2018-02-02T01:43:36.692Z,0
2018-02-02T01:44:46.194Z,0
2018-02-02T01:45:55.684Z,0
2018-02-02T01:47:05.431Z,0
2018-02-02T01:48:14.132Z,0
2018-02-02T01:49:23.355Z,0
2018-02-02T01:50:32.308Z,0
2018-02-02T01:51:41.793Z,0
2018-02-02T01:52:50.507Z,0
2018-02-02T01:53:59.708Z,0
2018-02-02T01:55:08.407Z,0
2018-02-02T01:56:17.646Z,0
2018-02-02T01:57:26.359Z,0
2018-02-02T01:58:35.315Z,0
2018-02-02T01:59:45.103Z,0
2018-02-02T02:00:54.309Z,0
2018-02-02T02:02:03.024Z,0
2018-02-02T02:03:12.002Z,0
2018-02-02T02:04:20.691Z,0
2018-02-02T02:05:30.176Z,0
2018-02-02T02:06:38.871Z,0
2018-02-02T02:07:47.874Z,0
2018-02-02T02:08:56.808Z,0
2018-02-02T02:10:05.494Z,0
2018-02-02T02:11:14.710Z,0
2018-02-02T02:12:23.921Z,0
2018-02-02T02:13:32.856Z,0
2018-02-02T02:14:41.790Z,0
2018-02-02T02:15:50.835Z,0
2018-02-02T02:16:59.786Z,0
2018-02-02T02:18:08.999Z,0
2018-02-02T02:19:17.947Z,0
2018-02-02T02:20:27.154Z,0
2018-02-02T02:21:36.094Z,0
2018-02-02T02:22:45.061Z,0
2018-02-02T02:23:54.020Z,0
2018-02-02T02:25:02.990Z,0
2018-02-02T02:26:11.935Z,0
2018-02-02T02:27:20.908Z,0
2018-02-02T02:28:29.887Z,0
2018-02-02T02:29:39.099Z,0
2018-02-02T02:30:48.854Z,0
2018-02-02T02:31:57.539Z,0
2018-02-02T02:33:07.019Z,0
2018-02-02T02:34:16.254Z,0
2018-02-02T02:35:25.204Z,0
2018-02-02T02:36:33.889Z,0
2018-02-02T02:37:43.102Z,0
2018-02-02T02:38:52.074Z,0
2018-02-02T02:40:01.307Z,0
2018-02-02T02:41:10.285Z,0
2018-02-02T02:42:19.267Z,0
2018-02-02T02:43:28.218Z,0
2018-02-02T02:44:36.971Z,0
2018-02-02T02:45:45.957Z,0
2018-02-02T02:46:55.442Z,0
2018-02-02T02:48:04.128Z,0
2018-02-02T02:49:13.090Z,0
2018-02-02T02:50:22.060Z,0
2018-02-02T02:51:30.766Z,0
2018-02-02T02:52:39.729Z,0
2018-02-02T02:53:48.945Z,0
2018-02-02T02:54:57.638Z,0
2018-02-02T02:56:06.600Z,0
2018-02-02T02:57:15.877Z,0
2018-02-02T02:58:25.421Z,0
2018-02-02T02:59:34.112Z,0
2018-02-02T03:00:43.337Z,0
2018-02-02T03:01:52.063Z,0
2018-02-02T03:03:01.599Z,0
2018-02-02T03:04:10.553Z,0
2018-02-02T03:05:19.516Z,0
2018-02-02T03:06:28.482Z,0
2018-02-02T03:07:37.442Z,0
2018-02-02T03:08:46.920Z,0
2018-02-02T03:09:55.616Z,0
2018-02-02T03:11:04.594Z,0
2018-02-02T03:12:13.859Z,0
2018-02-02T03:13:22.635Z,0
2018-02-02T03:14:32.137Z,0
2018-02-02T03:15:41.122Z,0
2018-02-02T03:16:50.346Z,0
2018-02-02T03:17:59.567Z,0
2018-02-02T03:19:08.279Z,0
2018-02-02T03:20:17.237Z,0
2018-02-02T03:21:26.209Z,0
2018-02-02T03:22:35.160Z,0
2018-02-02T03:23:44.386Z,0
2018-02-02T03:24:53.106Z,0
2018-02-02T03:26:02.098Z,0
2018-02-02T03:27:11.039Z,0
2018-02-02T03:28:20.008Z,0
2018-02-02T03:29:29.489Z,0
2018-02-02T03:30:38.469Z,0
2018-02-02T03:31:47.692Z,0
2018-02-02T03:32:56.928Z,0
2018-02-02T03:34:06.139Z,0
2018-02-02T03:35:15.094Z,0
2018-02-02T03:36:23.790Z,0
2018-02-02T03:37:32.487Z,0
2018-02-02T03:38:41.699Z,0
2018-02-02T03:39:50.392Z,0
2018-02-02T03:40:59.653Z,0
2018-02-02T03:42:08.601Z,0
2018-02-02T03:43:17.547Z,0
2018-02-02T03:44:26.774Z,0
2018-02-02T03:45:35.995Z,0
2018-02-02T03:46:44.947Z,0
2018-02-02T03:47:53.635Z,0
2018-02-02T03:49:02.595Z,0
2018-02-02T03:50:11.286Z,0
2018-02-02T03:51:20.260Z,0
2018-02-02T03:52:29.203Z,0
2018-02-02T03:53:37.894Z,0
2018-02-02T03:54:46.851Z,0
2018-02-02T03:55:55.798Z,0
2018-02-02T03:57:04.750Z,0
2018-02-02T03:58:13.977Z,0
2018-02-02T03:59:23.459Z,0
2018-02-02T04:00:32.822Z,0
2018-02-02T04:01:41.773Z,0
2018-02-02T04:02:50.724Z,0
2018-02-02T04:03:59.975Z,0
2018-02-02T04:05:08.966Z,0
2018-02-02T04:06:17.662Z,0
2018-02-02T04:07:26.623Z,0
2018-02-02T04:08:35.312Z,0
2018-02-02T04:09:44.789Z,0
2018-02-02T04:10:53.736Z,0
2018-02-02T04:12:02.487Z,0
2018-02-02T04:13:11.206Z,0
2018-02-02T04:14:20.182Z,0
2018-02-02T04:15:29.683Z,0
2018-02-02T04:16:38.947Z,0
2018-02-02T04:17:47.944Z,0
2018-02-02T04:18:57.701Z,0
2018-02-02T04:20:06.977Z,0
2018-02-02T04:21:15.713Z,0
2018-02-02T04:22:24.674Z,0
2018-02-02T04:23:33.630Z,0
2018-02-02T04:24:42.605Z,0
2018-02-02T04:25:51.331Z,0
2018-02-02T04:27:00.328Z,0
2018-02-02T04:28:09.034Z,0
2018-02-02T04:29:18.261Z,0
2018-02-02T04:30:27.203Z,0
2018-02-02T04:31:36.158Z,0
2018-02-02T04:32:45.129Z,0
2018-02-02T04:33:53.824Z,0
2018-02-02T04:35:02.795Z,0
2018-02-02T04:36:11.516Z,0
2018-02-02T04:37:20.471Z,0
2018-02-02T04:38:29.943Z,0
2018-02-02T04:39:39.150Z,0
2018-02-02T04:40:48.161Z,0
2018-02-02T04:41:57.114Z,0
2018-02-02T04:43:05.827Z,0
2018-02-02T04:44:15.300Z,0
2018-02-02T04:45:24.002Z,0
2018-02-02T04:46:33.481Z,0
2018-02-02T04:47:42.447Z,0
2018-02-02T04:48:51.661Z,0
2018-02-02T04:50:00.880Z,0
2018-02-02T04:51:09.862Z,0
2018-02-02T04:52:19.345Z,0
2018-02-02T04:53:28.399Z,0
2018-02-02T04:54:37.191Z,0
2018-02-02T04:55:46.095Z,0
2018-02-02T04:56:54.841Z,0
2018-02-02T04:58:04.128Z,0
2018-02-02T04:59:13.085Z,0
2018-02-02T05:00:22.327Z,0
2018-02-02T05:01:31.863Z,0
2018-02-02T05:02:40.549Z,0
2018-02-02T05:03:49.518Z,0
2018-02-02T05:04:58.506Z,0
2018-02-02T05:06:08.518Z,0
2018-02-02T05:07:17.781Z,0
2018-02-02T05:08:26.757Z,0
2018-02-02T05:09:36.020Z,0
2018-02-02T05:10:45.022Z,0
2018-02-02T05:11:54.516Z,0
2018-02-02T05:13:04.309Z,0
2018-02-02T05:14:13.591Z,0
2018-02-02T05:15:22.540Z,0
2018-02-02T05:16:31.256Z,0
2018-02-02T05:17:40.758Z,0
2018-02-02T05:18:50.265Z,0
2018-02-02T05:19:59.226Z,0
2018-02-02T05:21:08.750Z,0
2018-02-02T05:22:17.724Z,0
2018-02-02T05:23:26.684Z,0
2018-02-02T05:24:35.387Z,0
2018-02-02T05:25:44.367Z,0
2018-02-02T05:26:53.387Z,0
2018-02-02T05:28:02.381Z,0
2018-02-02T05:29:11.624Z,0
2018-02-02T05:30:20.341Z,0
2018-02-02T05:31:29.346Z,0
2018-02-02T05:32:38.330Z,0
2018-02-02T05:33:47.369Z,0
2018-02-02T05:34:57.128Z,0
2018-02-02T05:36:06.377Z,0
2018-02-02T05:37:15.369Z,0
2018-02-02T05:38:25.145Z,0
2018-02-02T05:39:34.164Z,0
2018-02-02T05:40:43.183Z,0
2018-02-02T05:41:51.892Z,0
2018-02-02T05:43:01.121Z,0
2018-02-02T05:44:10.122Z,0
2018-02-02T05:45:18.827Z,0
2018-02-02T05:46:27.824Z,0
2018-02-02T05:47:37.066Z,0
2018-02-02T05:48:46.016Z,0
2018-02-02T05:49:55.040Z,0
2018-02-02T05:51:04.569Z,0
2018-02-02T05:52:13.615Z,0
2018-02-02T05:53:22.324Z,0
2018-02-02T05:54:31.309Z,0
2018-02-02T05:55:40.561Z,0
2018-02-02T05:56:49.620Z,0
2018-02-02T05:57:58.876Z,0
2018-02-02T05:59:08.375Z,0
2018-02-02T06:00:17.649Z,0
2018-02-02T06:01:27.176Z,0
2018-02-02T06:02:36.153Z,0
2018-02-02T06:03:45.755Z,0
2018-02-02T06:04:54.465Z,0
2018-02-02T06:06:03.686Z,0
2018-02-02T06:07:13.173Z,0
2018-02-02T06:08:22.686Z,0
2018-02-02T06:09:31.715Z,0
2018-02-02T06:10:40.683Z,0
2018-02-02T06:11:49.379Z,0
2018-02-02T06:12:58.346Z,0
2018-02-02T06:14:07.862Z,8
2018-02-02T06:15:16.828Z,8
2018-02-02T06:16:26.051Z,4
2018-02-02T06:17:35.025Z,4
2018-02-02T06:18:43.984Z,8
2018-02-02T06:19:53.237Z,8
2018-02-02T06:21:02.257Z,4
2018-02-02T06:22:11.226Z,8
2018-02-02T06:23:20.466Z,4
2018-02-02T06:24:29.431Z,4
2018-02-02T06:25:38.123Z,4
2018-02-02T06:26:47.138Z,4
2018-02-02T06:27:55.840Z,4
2018-02-02T06:29:05.079Z,4
2018-02-02T06:30:14.348Z,8
2018-02-02T06:31:23.556Z,4
2018-02-02T06:32:32.815Z,4
2018-02-02T06:33:42.040Z,8
2018-02-02T06:34:50.753Z,8
2018-02-02T06:35:59.972Z,8
2018-02-02T06:37:08.991Z,8
2018-02-02T06:38:17.963Z,4
2018-02-02T06:39:26.907Z,4
2018-02-02T06:40:35.636Z,4
2018-02-02T06:41:44.614Z,4
2018-02-02T06:42:53.654Z,4
2018-02-02T06:44:02.380Z,4
2018-02-02T06:45:11.360Z,8
2018-02-02T06:46:20.608Z,8
2018-02-02T06:47:29.599Z,4
2018-02-02T06:48:38.822Z,8
2018-02-02T06:52:20.155Z,8
2018-02-02T06:53:29.096Z,12
2018-02-02T06:54:38.054Z,12
2018-02-02T06:55:47.303Z,12
2018-02-02T06:56:56.008Z,16
2018-02-02T06:58:04.701Z,12
2018-02-02T06:59:13.385Z,12
2018-02-02T07:00:22.869Z,12
2018-02-02T07:01:31.845Z,20
2018-02-02T07:02:40.553Z,20
2018-02-02T07:03:50.057Z,20
2018-02-02T07:04:59.806Z,20
2018-02-02T07:06:09.826Z,24
2018-02-02T07:07:18.796Z,24
2018-02-02T07:08:27.798Z,24
2018-02-02T07:09:37.001Z,24
2018-02-02T07:10:46.248Z,24
2018-02-02T07:11:54.958Z,24
2018-02-02T07:13:03.683Z,36
2018-02-02T07:14:12.418Z,36
2018-02-02T07:15:21.922Z,28
2018-02-02T07:16:31.162Z,32
2018-02-02T07:17:40.130Z,32
2018-02-02T07:18:48.832Z,40
2018-02-02T07:19:57.807Z,48
2018-02-02T07:21:06.534Z,60
2018-02-02T07:22:15.242Z,68
2018-02-02T07:23:24.184Z,96
2018-02-02T07:24:33.151Z,100
2018-02-02T07:25:42.116Z,100
2018-02-02T07:26:51.598Z,104
2018-02-02T07:28:00.587Z,124
2018-02-02T07:29:09.634Z,136
2018-02-02T07:30:18.622Z,144
2018-02-02T07:31:27.596Z,140
2018-02-02T07:32:37.096Z,148
2018-02-02T07:33:46.116Z,168
2018-02-02T07:34:54.858Z,156
2018-02-02T07:36:04.130Z,200
2018-02-02T07:37:13.363Z,200
2018-02-02T07:38:22.869Z,188
2018-02-02T07:39:32.085Z,184
2018-02-02T07:40:41.061Z,188
2018-02-02T07:41:50.288Z,176
2018-02-02T07:42:59.238Z,180
2018-02-02T07:44:08.728Z,196
2018-02-02T07:45:17.973Z,152
2018-02-02T07:46:26.673Z,200
2018-02-02T07:47:35.640Z,188
2018-02-02T07:48:44.604Z,204
2018-02-02T07:49:53.303Z,164
2018-02-02T07:51:03.073Z,184
2018-02-02T07:52:12.540Z,212
2018-02-02T07:53:21.745Z,212
2018-02-02T07:54:30.445Z,212
2018-02-02T07:55:39.392Z,216
2018-02-02T07:56:49.188Z,208
2018-02-02T07:57:58.441Z,212
2018-02-02T07:59:08.196Z,216
2018-02-02T08:00:17.203Z,212
2018-02-02T08:01:26.714Z,240
2018-02-02T08:02:35.721Z,264
2018-02-02T08:03:45.246Z,276
2018-02-02T08:04:54.733Z,300
2018-02-02T08:06:03.492Z,336
2018-02-02T08:07:12.491Z,304
2018-02-02T08:08:21.769Z,388
2018-02-02T08:09:30.786Z,388
2018-02-02T08:10:40.806Z,464
2018-02-02T08:11:50.034Z,404
2018-02-02T08:12:59.298Z,392
2018-02-02T08:14:09.095Z,460
2018-02-02T08:15:18.070Z,396
2018-02-02T08:16:27.053Z,412
2018-02-02T08:17:35.825Z,344
2018-02-02T08:18:44.790Z,380
2018-02-02T08:19:54.014Z,384
2018-02-02T08:21:02.746Z,392
2018-02-02T08:22:11.986Z,352
2018-02-02T08:23:20.739Z,360
2018-02-02T08:24:29.951Z,308
2018-02-02T08:25:38.935Z,376
2018-02-02T08:26:48.432Z,392
2018-02-02T08:27:57.429Z,272
2018-02-02T08:29:06.734Z,276
2018-02-02T08:30:16.008Z,288
2018-02-02T08:31:24.986Z,236
2018-02-02T08:32:33.930Z,212
2018-02-02T08:33:42.626Z,232
2018-02-02T08:34:51.935Z,216
2018-02-02T08:36:01.224Z,204
2018-02-02T08:37:10.197Z,188
2018-02-02T08:38:18.892Z,224
2018-02-02T08:39:28.150Z,196
2018-02-02T08:40:36.872Z,200
2018-02-02T08:41:45.614Z,244
2018-02-02T08:42:54.874Z,232
2018-02-02T08:44:04.818Z,268
2018-02-02T08:45:13.558Z,268
2018-02-02T08:46:22.514Z,312
2018-02-02T08:47:32.027Z,336
2018-02-02T08:48:40.777Z,272
2018-02-02T08:49:50.096Z,344
2018-02-02T08:50:59.336Z,396
2018-02-02T08:52:08.577Z,412
2018-02-02T08:53:17.550Z,424
2018-02-02T08:54:26.572Z,416
2018-02-02T08:55:35.799Z,356
2018-02-02T08:56:44.503Z,332
2018-02-02T08:57:53.536Z,376
2018-02-02T08:59:03.061Z,440
2018-02-02T09:00:12.579Z,504
2018-02-02T09:01:21.812Z,500
2018-02-02T09:02:30.816Z,552
2018-02-02T09:03:40.055Z,560
2018-02-02T09:04:49.049Z,460
2018-02-02T09:05:58.337Z,420
2018-02-02T09:07:07.328Z,372
2018-02-02T09:08:16.048Z,368
2018-02-02T09:09:25.007Z,364
2018-02-02T09:10:33.959Z,344
2018-02-02T09:11:43.476Z,352
2018-02-02T09:12:52.708Z,336
2018-02-02T09:14:01.671Z,304
2018-02-02T09:15:10.631Z,340
2018-02-02T09:16:19.371Z,304
2018-02-02T09:17:28.389Z,284
2018-02-02T09:18:37.368Z,236
2018-02-02T09:19:46.381Z,300
2018-02-02T09:20:55.860Z,288
2018-02-02T09:22:05.356Z,340
2018-02-02T09:23:14.595Z,364
2018-02-02T09:24:23.551Z,432
2018-02-02T09:25:32.512Z,536
2018-02-02T09:26:41.729Z,504
2018-02-02T09:27:50.950Z,416
2018-02-02T09:28:59.934Z,464
2018-02-02T09:30:09.155Z,320
2018-02-02T09:31:17.867Z,288
2018-02-02T09:32:27.077Z,292
2018-02-02T09:33:36.575Z,304
2018-02-02T09:34:45.314Z,312
2018-02-02T09:35:54.002Z,300
2018-02-02T09:37:03.498Z,276
2018-02-02T09:38:12.490Z,336
2018-02-02T09:39:21.553Z,364
2018-02-02T09:40:30.518Z,364
2018-02-02T09:41:39.739Z,384
2018-02-02T09:42:49.222Z,548
2018-02-02T09:43:58.201Z,556
2018-02-02T09:45:07.408Z,672
2018-02-02T09:46:16.127Z,668
2018-02-02T09:47:25.106Z,592
2018-02-02T09:48:34.093Z,436
2018-02-02T09:49:43.063Z,484
2018-02-02T09:50:52.049Z,428
2018-02-02T09:52:01.028Z,464
2018-02-02T09:53:10.092Z,436
2018-02-02T09:54:18.798Z,472
2018-02-02T09:55:28.011Z,488
2018-02-02T09:56:37.271Z,460
2018-02-02T09:57:46.769Z,400
2018-02-02T09:58:55.746Z,404
2018-02-02T10:00:04.715Z,372
2018-02-02T10:01:13.959Z,336
2018-02-02T10:02:23.164Z,328
2018-02-02T10:03:32.150Z,276
2018-02-02T10:04:41.184Z,300
2018-02-02T10:05:49.891Z,336
2018-02-02T10:06:58.845Z,384
2018-02-02T10:08:08.129Z,372
2018-02-02T10:09:16.896Z,364
2018-02-02T10:10:25.865Z,396
2018-02-02T10:11:34.574Z,412
2018-02-02T10:12:44.072Z,412
2018-02-02T10:13:53.324Z,416
2018-02-02T10:15:02.389Z,432
2018-02-02T10:16:11.636Z,496
2018-02-02T10:17:20.862Z,652
2018-02-02T10:18:30.355Z,652
2018-02-02T10:19:39.575Z,532
2018-02-02T10:20:48.527Z,504
2018-02-02T10:21:57.770Z,464
2018-02-02T10:23:06.977Z,484
2018-02-02T10:24:16.454Z,440
2018-02-02T10:25:25.436Z,524
2018-02-02T10:26:34.662Z,604
2018-02-02T10:27:44.138Z,560
2018-02-02T10:28:53.398Z,624
2018-02-02T10:30:02.686Z,564
2018-02-02T10:31:11.642Z,572
2018-02-02T10:32:21.394Z,548
2018-02-02T10:33:30.101Z,788
2018-02-02T10:34:38.802Z,884
2018-02-02T10:35:48.047Z,924
2018-02-02T10:36:56.735Z,1068
2018-02-02T10:38:05.460Z,988
2018-02-02T10:39:14.427Z,1004
2018-02-02T10:40:23.129Z,924
2018-02-02T10:41:32.361Z,1012
2018-02-02T10:42:41.072Z,832
2018-02-02T10:43:50.560Z,1088
2018-02-02T10:45:00.060Z,1272
2018-02-02T10:46:08.749Z,1232
2018-02-02T10:47:17.978Z,1256
2018-02-02T10:48:26.945Z,1168
2018-02-02T10:49:35.907Z,792
2018-02-02T10:50:45.121Z,732
2018-02-02T10:51:54.342Z,564
2018-02-02T10:53:03.814Z,616
2018-02-02T10:54:12.765Z,548
2018-02-02T10:55:21.749Z,680
2018-02-02T10:56:30.463Z,632
2018-02-02T10:57:39.953Z,792
2018-02-02T10:58:48.928Z,752
2018-02-02T10:59:58.144Z,876
2018-02-02T11:01:07.363Z,860
2018-02-02T11:02:16.607Z,748
2018-02-02T11:03:25.831Z,752
2018-02-02T11:04:34.541Z,672
2018-02-02T11:05:43.824Z,616
2018-02-02T11:06:52.557Z,528
2018-02-02T11:08:01.776Z,504
2018-02-02T11:09:10.468Z,432
2018-02-02T11:10:19.451Z,516
2018-02-02T11:11:28.672Z,720
2018-02-02T11:12:37.690Z,964
2018-02-02T11:13:46.667Z,876
2018-02-02T11:14:55.623Z,844
2018-02-02T11:16:04.861Z,808
2018-02-02T11:17:13.816Z,808
2018-02-02T11:18:22.540Z,756
2018-02-02T11:19:31.760Z,648
2018-02-02T11:20:40.486Z,812
2018-02-02T11:21:49.438Z,684
2018-02-02T11:22:58.684Z,952
2018-02-02T11:24:07.754Z,1044
2018-02-02T11:25:16.726Z,992
2018-02-02T11:26:25.679Z,692
2018-02-02T11:27:35.153Z,840
2018-02-02T11:28:44.360Z,940
2018-02-02T11:29:53.324Z,1316
2018-02-02T11:31:02.533Z,1348
2018-02-02T11:32:11.281Z,1640
2018-02-02T11:33:19.999Z,1420
2018-02-02T11:34:28.681Z,1488
2018-02-02T11:35:38.179Z,1512
2018-02-02T11:36:47.383Z,1380
2018-02-02T11:37:57.097Z,1524
2018-02-02T11:39:06.346Z,1952
2018-02-02T11:40:15.082Z,2092
2018-02-02T11:41:24.284Z,1784
2018-02-02T11:42:33.521Z,1732
2018-02-02T11:43:42.207Z,2220
2018-02-02T11:44:51.184Z,2372
2018-02-02T11:46:00.172Z,1680
2018-02-02T11:47:09.663Z,1544
2018-02-02T11:48:18.345Z,1456
2018-02-02T11:49:27.048Z,1556
2018-02-02T11:50:35.783Z,1456
2018-02-02T11:51:44.779Z,1728
2018-02-02T11:52:53.980Z,2020
2018-02-02T11:54:02.660Z,2100
2018-02-02T11:55:11.886Z,2060
2018-02-02T11:56:21.154Z,2400
2018-02-02T11:57:30.378Z,2148
2018-02-02T11:58:39.855Z,1876
2018-02-02T11:59:49.070Z,1968
2018-02-02T12:00:58.285Z,1836
2018-02-02T12:02:07.506Z,1900
2018-02-02T12:03:16.472Z,1936
2018-02-02T12:04:26.010Z,1488
2018-02-02T12:05:34.696Z,1488
2018-02-02T12:06:43.944Z,1556
2018-02-02T12:07:52.631Z,1584
2018-02-02T12:09:01.582Z,1528
2018-02-02T12:10:10.280Z,1556
2018-02-02T12:11:19.293Z,1364
2018-02-02T12:12:28.298Z,1144
2018-02-02T12:13:37.022Z,1156
2018-02-02T12:14:46.239Z,1212
2018-02-02T12:15:55.276Z,1116
2018-02-02T12:17:03.980Z,1076
2018-02-02T12:18:13.002Z,1184
2018-02-02T12:19:22.225Z,1280
2018-02-02T12:20:31.177Z,1076
2018-02-02T12:21:40.420Z,1288
2018-02-02T12:22:49.378Z,1408
2018-02-02T12:23:58.625Z,1616
2018-02-02T12:25:08.646Z,1708
2018-02-02T12:26:17.597Z,1680
2018-02-02T12:27:26.841Z,1424
2018-02-02T12:28:36.097Z,1580
2018-02-02T12:29:45.575Z,1656
2018-02-02T12:30:54.531Z,1708
2018-02-02T12:32:03.623Z,1708
2018-02-02T12:33:12.356Z,1536
2018-02-02T12:34:21.315Z,1256
2018-02-02T12:35:30.263Z,1272
2018-02-02T12:36:38.970Z,1280
2018-02-02T12:37:48.463Z,1344
2018-02-02T12:38:57.187Z,1256
2018-02-02T12:40:05.957Z,1608
2018-02-02T12:41:15.164Z,1788
2018-02-02T12:42:24.427Z,1492
2018-02-02T12:43:33.391Z,1212
2018-02-02T12:44:42.073Z,1120
2018-02-02T12:45:51.066Z,984
2018-02-02T12:46:59.780Z,936
2018-02-02T12:48:08.778Z,1012
2018-02-02T12:49:18.011Z,1084
2018-02-02T12:50:27.267Z,1056
2018-02-02T12:51:36.306Z,796
2018-02-02T12:52:44.996Z,684
2018-02-02T12:53:53.958Z,520
2018-02-02T12:55:02.898Z,384
2018-02-02T12:56:12.116Z,316
2018-02-02T12:57:21.351Z,292
2018-02-02T12:58:30.054Z,360
2018-02-02T12:59:39.286Z,472
2018-02-02T13:00:48.532Z,332
2018-02-02T13:01:57.821Z,236
2018-02-02T13:03:06.492Z,212
2018-02-02T13:04:15.713Z,252
2018-02-02T13:05:25.234Z,312
2018-02-02T13:06:34.233Z,292
2018-02-02T13:07:43.529Z,468
2018-02-02T13:08:52.754Z,608
2018-02-02T13:10:01.708Z,616
2018-02-02T13:11:10.431Z,572
2018-02-02T13:12:19.429Z,424
2018-02-02T13:13:28.465Z,448
2018-02-02T13:14:37.444Z,464
2018-02-02T13:15:46.150Z,376
2018-02-02T13:16:55.170Z,296
2018-02-02T13:18:04.688Z,272
2018-02-02T13:19:14.279Z,344
2018-02-02T13:20:23.256Z,424
2018-02-02T13:21:32.270Z,412
2018-02-02T13:22:41.244Z,324
2018-02-02T13:23:50.457Z,296
2018-02-02T13:25:00.206Z,356
2018-02-02T13:26:09.450Z,512
2018-02-02T13:27:18.195Z,532
2018-02-02T13:28:27.444Z,468
2018-02-02T13:29:36.170Z,380
2018-02-02T13:30:45.129Z,308
2018-02-02T13:31:54.090Z,332
2018-02-02T13:33:03.041Z,440
2018-02-02T13:34:11.989Z,536
2018-02-02T13:35:20.695Z,440
2018-02-02T13:36:29.406Z,412
2018-02-02T13:37:38.975Z,464
2018-02-02T13:38:47.747Z,432
2018-02-02T13:39:56.463Z,412
2018-02-02T13:41:05.701Z,448
2018-02-02T13:42:14.919Z,492
2018-02-02T13:43:24.153Z,412
2018-02-02T13:44:33.136Z,420
2018-02-02T13:45:41.885Z,448
2018-02-02T13:46:50.842Z,476
2018-02-02T13:48:00.321Z,444
2018-02-02T13:49:09.265Z,456
2018-02-02T13:50:17.964Z,556
2018-02-02T13:51:26.661Z,688
2018-02-02T13:52:36.120Z,648
2018-02-02T13:53:45.070Z,612
2018-02-02T13:54:54.024Z,660
2018-02-02T13:56:02.727Z,748
2018-02-02T13:57:11.397Z,696
2018-02-02T13:58:20.356Z,588
2018-02-02T13:59:29.602Z,552
2018-02-02T14:00:38.297Z,516
2018-02-02T14:01:47.253Z,480
2018-02-02T14:02:55.968Z,460
2018-02-02T14:04:04.928Z,464
2018-02-02T14:05:14.169Z,568
2018-02-02T14:06:22.944Z,720
2018-02-02T14:07:32.413Z,808
2018-02-02T14:08:41.623Z,772
2018-02-02T14:09:50.306Z,748
2018-02-02T14:10:59.246Z,796
2018-02-02T14:12:08.457Z,812
2018-02-02T14:13:17.485Z,780
2018-02-02T14:14:26.717Z,720
2018-02-02T14:15:35.986Z,664
2018-02-02T14:16:45.513Z,604
2018-02-02T14:17:54.458Z,544
2018-02-02T14:19:03.674Z,484
2018-02-02T14:20:12.935Z,456
2018-02-02T14:21:22.411Z,448
2018-02-02T14:22:31.122Z,452
2018-02-02T14:23:40.414Z,468
2018-02-02T14:24:49.633Z,484
2018-02-02T14:25:58.885Z,500
2018-02-02T14:27:08.393Z,512
2018-02-02T14:28:17.151Z,520
2018-02-02T14:29:26.100Z,528
2018-02-02T14:30:35.043Z,556
2018-02-02T14:31:44.033Z,576
2018-02-02T14:32:52.747Z,588
2018-02-02T14:34:01.993Z,576
2018-02-02T14:35:10.970Z,524
2018-02-02T14:36:19.903Z,440
2018-02-02T14:37:29.633Z,356
2018-02-02T14:38:38.860Z,288
2018-02-02T14:39:48.340Z,236
2018-02-02T14:40:57.578Z,196
2018-02-02T14:42:06.790Z,180
2018-02-02T14:43:16.541Z,156
2018-02-02T14:44:25.250Z,144
2018-02-02T14:45:34.455Z,164
2018-02-02T14:46:43.162Z,164
2018-02-02T14:47:52.661Z,160
2018-02-02T14:49:01.652Z,152
2018-02-02T14:50:10.350Z,128
2018-02-02T14:51:19.456Z,116
2018-02-02T14:52:28.941Z,116
2018-02-02T14:53:37.902Z,132
2018-02-02T14:54:46.617Z,132
2018-02-02T14:55:55.849Z,132
2018-02-02T14:57:04.543Z,184
2018-02-02T14:58:13.543Z,252
2018-02-02T14:59:22.518Z,324
2018-02-02T15:00:32.002Z,412
2018-02-02T15:01:41.237Z,456
2018-02-02T15:02:50.191Z,480
2018-02-02T15:03:59.151Z,440
2018-02-02T15:05:08.378Z,404
2018-02-02T15:06:17.075Z,412
2018-02-02T15:07:26.299Z,436
2018-02-02T15:08:35.280Z,436
2018-02-02T15:09:44.248Z,436
2018-02-02T15:10:52.958Z,436
2018-02-02T15:12:02.234Z,400
2018-02-02T15:13:11.214Z,364
2018-02-02T15:14:20.031Z,420
2018-02-02T15:15:28.724Z,424
2018-02-02T15:16:38.229Z,372
2018-02-02T15:17:47.286Z,416
2018-02-02T15:18:56.028Z,388
2018-02-02T15:20:05.245Z,376
2018-02-02T15:21:14.004Z,348
2018-02-02T15:22:23.759Z,316
2018-02-02T15:23:33.017Z,300
2018-02-02T15:24:42.000Z,296
2018-02-02T15:25:51.508Z,296
2018-02-02T15:27:00.275Z,296
2018-02-02T15:28:09.586Z,292
2018-02-02T15:29:18.633Z,284
2018-02-02T15:30:27.634Z,280
2018-02-02T15:31:36.595Z,268
2018-02-02T15:32:45.571Z,256
2018-02-02T15:33:54.299Z,236
2018-02-02T15:35:03.563Z,216
2018-02-02T15:36:13.098Z,192
2018-02-02T15:37:22.342Z,176
2018-02-02T15:38:31.324Z,168
2018-02-02T15:39:40.275Z,152
2018-02-02T15:40:49.511Z,144
2018-02-02T15:41:58.229Z,132
2018-02-02T15:43:07.501Z,124
2018-02-02T15:44:16.492Z,120
2018-02-02T15:45:26.279Z,112
2018-02-02T15:46:35.514Z,108
2018-02-02T15:47:44.524Z,100
2018-02-02T15:48:53.268Z,92
2018-02-02T15:50:02.231Z,84
2018-02-02T15:51:11.000Z,80
2018-02-02T15:52:20.016Z,76
2018-02-02T15:53:29.254Z,72
2018-02-02T15:54:38.503Z,64
2018-02-02T15:55:47.550Z,68
2018-02-02T15:56:56.545Z,64
2018-02-02T15:58:05.553Z,60
2018-02-02T15:59:14.549Z,56
2018-02-02T16:00:23.601Z,48
2018-02-02T16:01:32.898Z,44
2018-02-02T16:02:42.036Z,40
2018-02-02T16:03:50.724Z,36
2018-02-02T16:04:59.459Z,32
2018-02-02T16:06:08.974Z,32
2018-02-02T16:07:17.701Z,28
2018-02-02T16:08:26.377Z,32
2018-02-02T16:09:35.608Z,32
2018-02-02T16:10:44.586Z,32
2018-02-02T16:11:53.830Z,32
2018-02-02T16:13:03.113Z,28
2018-02-02T16:14:11.842Z,20
2018-02-02T16:15:21.366Z,16
2018-02-02T16:16:30.427Z,12
2018-02-02T16:17:39.651Z,8
2018-02-02T16:18:48.608Z,8
2018-02-02T16:19:57.571Z,8
2018-02-02T16:21:06.259Z,8